createdAt,value
2019-02-07T00:01:28.548Z,14.67
2019-02-07T00:03:57.400Z,13.77
2019-02-07T00:06:26.713Z,15.33
2019-02-07T00:08:55.512Z,15.60
2019-02-07T00:11:24.870Z,17.00
2019-02-07T00:13:53.737Z,21.50
2019-02-07T00:16:23.148Z,20.80
2019-02-07T00:18:52.312Z,22.73
2019-02-07T00:21:21.170Z,21.70
2019-02-07T00:23:50.044Z,20.63
2019-02-07T00:26:18.915Z,21.60
2019-02-07T00:28:47.781Z,19.80
2019-02-07T00:31:17.071Z,18.60
2019-02-07T00:33:45.956Z,19.90
2019-02-07T00:36:14.802Z,20.17
2019-02-07T00:38:43.868Z,19.13
2019-02-07T00:41:12.712Z,19.33
2019-02-07T00:43:41.505Z,18.40
2019-02-07T00:46:10.642Z,19.63
2019-02-07T00:48:39.508Z,20.87
2019-02-07T00:51:08.618Z,20.73
2019-02-07T00:53:37.538Z,18.87
2019-02-07T00:56:06.393Z,22.40
2019-02-07T00:58:35.518Z,20.73
2019-02-07T01:01:05.032Z,20.23
2019-02-07T01:03:34.033Z,20.23
2019-02-07T01:06:02.978Z,20.17
2019-02-07T01:08:32.106Z,20.83
2019-02-07T01:11:00.885Z,18.30
2019-02-07T01:13:29.761Z,19.50
2019-02-07T01:15:58.701Z,19.43
2019-02-07T01:18:27.574Z,20.37
2019-02-07T01:20:56.605Z,19.93
2019-02-07T01:23:25.551Z,17.77
2019-02-07T01:25:54.407Z,19.10
2019-02-07T01:28:23.286Z,20.47
2019-02-07T01:30:52.338Z,20.13
2019-02-07T01:33:21.379Z,19.07
2019-02-07T01:35:50.154Z,19.27
2019-02-07T01:38:18.941Z,19.73
2019-02-07T01:40:47.813Z,20.70
2019-02-07T01:43:16.998Z,20.60
2019-02-07T01:45:45.961Z,19.10
2019-02-07T01:48:15.332Z,18.17
2019-02-07T01:50:44.550Z,18.07
2019-02-07T01:53:13.333Z,16.97
2019-02-07T01:55:42.197Z,18.43
2019-02-07T01:58:11.314Z,18.07
2019-02-07T02:00:40.190Z,19.20
2019-02-07T02:03:09.570Z,18.83
2019-02-07T02:05:38.361Z,18.93
2019-02-07T02:08:07.515Z,16.63
2019-02-07T02:10:36.469Z,17.90
2019-02-07T02:13:05.542Z,17.23
2019-02-07T02:15:34.410Z,17.20
2019-02-07T02:18:03.428Z,16.97
2019-02-07T02:20:32.529Z,17.37
2019-02-07T02:23:01.302Z,17.40
2019-02-07T02:25:30.083Z,17.33
2019-02-07T02:27:59.688Z,16.50
2019-02-07T02:30:30.909Z,15.00
2019-02-07T02:33:00.153Z,17.03
2019-02-07T02:35:29.140Z,17.00
2019-02-07T02:37:57.981Z,16.50
2019-02-07T02:40:27.266Z,17.03
2019-02-07T02:42:56.549Z,17.23
2019-02-07T02:45:37.011Z,16.57
2019-02-07T02:47:56.942Z,16.50
2019-02-07T02:50:26.013Z,18.57
2019-02-07T02:52:54.910Z,17.40
2019-02-07T02:55:32.852Z,16.97
2019-02-07T02:58:01.871Z,17.90
2019-02-07T03:00:52.895Z,16.20
2019-02-07T03:03:32.821Z,16.27
2019-02-07T03:06:09.488Z,16.47
2019-02-07T03:08:57.863Z,18.50
2019-02-07T03:11:38.586Z,16.37
2019-02-07T03:14:16.546Z,16.47
2019-02-07T03:16:58.801Z,17.73
2019-02-07T03:19:40.338Z,16.63
2019-02-07T03:22:37.376Z,16.23
2019-02-07T03:25:33.540Z,17.50
2019-02-07T03:28:13.012Z,17.10
2019-02-07T03:31:00.943Z,17.10
2019-02-07T03:33:42.413Z,16.30
2019-02-07T03:36:21.312Z,16.07
2019-02-07T03:39:09.166Z,17.63
2019-02-07T03:41:57.737Z,17.30
2019-02-07T03:44:44.202Z,17.57
2019-02-07T03:47:32.140Z,18.00
2019-02-07T03:50:26.046Z,17.63
2019-02-07T03:53:07.854Z,17.83
2019-02-07T03:56:02.229Z,18.13
2019-02-07T03:58:59.390Z,17.27
2019-02-07T04:01:43.974Z,19.20
2019-02-07T04:04:26.949Z,18.73
2019-02-07T04:07:04.076Z,19.30
2019-02-07T04:09:53.020Z,20.57
2019-02-07T04:12:49.148Z,21.23
2019-02-07T04:15:39.930Z,19.77
2019-02-07T04:18:28.844Z,22.53
2019-02-07T04:21:11.841Z,21.60
2019-02-07T04:23:58.399Z,22.50
2019-02-07T04:26:56.841Z,21.47
2019-02-07T04:29:50.579Z,20.17
2019-02-07T04:32:37.170Z,21.60
2019-02-07T04:35:24.168Z,22.43
2019-02-07T04:38:18.232Z,21.70
2019-02-07T04:41:14.965Z,22.93
2019-02-07T04:44:01.472Z,21.23
2019-02-07T04:46:51.883Z,23.60
2019-02-07T04:49:34.091Z,22.20
2019-02-07T04:52:20.405Z,22.83
2019-02-07T04:54:57.654Z,23.80
2019-02-07T04:57:51.531Z,22.43
2019-02-07T05:00:39.869Z,23.57
2019-02-07T05:03:24.117Z,21.10
2019-02-07T05:06:02.114Z,21.30
2019-02-07T05:08:49.978Z,20.87
2019-02-07T05:11:45.100Z,21.37
2019-02-07T05:14:33.025Z,20.47
2019-02-07T05:17:21.731Z,21.43
2019-02-07T05:20:11.131Z,21.00
2019-02-07T05:23:05.881Z,19.97
2019-02-07T05:25:53.733Z,20.23
2019-02-07T05:28:45.637Z,21.00
2019-02-07T05:31:21.986Z,21.70
2019-02-07T05:34:08.829Z,22.57
2019-02-07T05:36:55.704Z,23.57
2019-02-07T05:39:42.256Z,23.50
2019-02-07T05:42:30.326Z,25.77
2019-02-07T05:45:14.322Z,24.33
2019-02-07T05:48:14.415Z,25.80
2019-02-07T05:50:55.695Z,26.40
2019-02-07T05:53:37.645Z,26.07
2019-02-07T05:56:15.380Z,36.33
2019-02-07T05:59:04.698Z,43.93
2019-02-07T06:01:41.604Z,32.97
2019-02-07T06:04:28.251Z,23.40
2019-02-07T06:07:14.835Z,23.73
2019-02-07T06:09:52.949Z,20.83
2019-02-07T06:12:47.187Z,22.63
2019-02-07T06:15:29.676Z,19.63
2019-02-07T06:18:25.957Z,18.37
2019-02-07T06:21:13.872Z,20.60
2019-02-07T06:24:04.806Z,18.57
2019-02-07T06:26:58.743Z,18.47
2019-02-07T06:29:40.457Z,19.53
2019-02-07T06:32:17.479Z,17.83
2019-02-07T06:35:05.410Z,18.37
2019-02-07T06:37:52.388Z,18.60
2019-02-07T06:40:30.025Z,17.70
2019-02-07T06:43:22.409Z,19.00
2019-02-07T06:46:04.893Z,18.03
2019-02-07T06:48:51.249Z,20.57
2019-02-07T06:51:37.821Z,18.50
2019-02-07T06:54:18.538Z,17.07
2019-02-07T06:57:12.802Z,18.03
2019-02-07T06:59:59.401Z,19.67
2019-02-07T07:02:50.273Z,18.63
2019-02-07T07:05:33.690Z,18.27
2019-02-07T07:08:10.997Z,17.13
2019-02-07T07:11:10.839Z,17.03
2019-02-07T07:14:10.852Z,18.03
2019-02-07T07:16:46.960Z,18.80
2019-02-07T07:19:37.919Z,19.03
2019-02-07T07:22:44.210Z,19.13
2019-02-07T07:25:22.980Z,19.03
2019-02-07T07:28:28.873Z,21.23
2019-02-07T07:31:19.824Z,20.17
2019-02-07T07:34:16.945Z,20.77
2019-02-07T07:37:03.264Z,21.53
2019-02-07T07:39:54.821Z,23.83
2019-02-07T07:42:53.215Z,23.60
2019-02-07T07:45:44.174Z,24.43
2019-02-07T07:48:41.055Z,21.93
2019-02-07T07:51:41.005Z,23.87
2019-02-07T07:54:23.416Z,24.70
2019-02-07T07:57:18.931Z,26.43
2019-02-07T08:00:11.491Z,23.63
2019-02-07T08:02:59.818Z,24.43
2019-02-07T08:05:46.423Z,24.67
2019-02-07T08:08:34.373Z,25.33
2019-02-07T08:11:20.926Z,26.40
2019-02-07T08:13:56.510Z,27.97
2019-02-07T08:16:43.102Z,26.57
2019-02-07T08:19:49.182Z,27.00
2019-02-07T08:22:35.659Z,24.23
2019-02-07T08:25:24.754Z,28.20
2019-02-07T08:28:26.715Z,28.17
2019-02-07T08:31:20.538Z,27.83
2019-02-07T08:34:17.153Z,26.80
2019-02-07T08:36:58.338Z,26.57
2019-02-07T08:39:49.399Z,29.40
2019-02-07T08:42:52.541Z,27.90
2019-02-07T08:45:39.005Z,28.40
2019-02-07T08:48:20.161Z,26.33
2019-02-07T08:51:01.826Z,27.27
2019-02-07T08:53:52.857Z,26.57
2019-02-07T08:56:43.998Z,27.13
2019-02-07T08:59:40.833Z,28.20
2019-02-07T09:02:27.606Z,30.33
2019-02-07T09:05:16.393Z,30.30
2019-02-07T09:08:02.178Z,29.60
2019-02-07T09:10:59.150Z,29.33
2019-02-07T09:13:43.376Z,29.07
2019-02-07T09:16:27.430Z,27.03
2019-02-07T09:19:21.058Z,25.37
2019-02-07T09:22:07.938Z,26.80
2019-02-07T09:24:54.506Z,28.80
2019-02-07T09:27:38.303Z,26.53
2019-02-07T09:30:27.999Z,25.27
2019-02-07T09:33:18.997Z,23.57
2019-02-07T09:36:05.038Z,23.70
2019-02-07T09:38:39.173Z,23.37
2019-02-07T09:41:19.675Z,24.53
2019-02-07T09:44:02.828Z,23.87
2019-02-07T09:46:43.286Z,24.37
2019-02-07T09:49:31.586Z,23.33
2019-02-07T09:52:22.533Z,23.43
2019-02-07T09:55:09.154Z,24.17
2019-02-07T09:58:00.145Z,25.13
2019-02-07T10:00:48.039Z,23.03
2019-02-07T10:03:25.971Z,24.53
2019-02-07T10:06:20.029Z,23.37
2019-02-07T10:09:06.434Z,23.03
2019-02-07T10:11:52.903Z,24.60
2019-02-07T10:14:50.474Z,25.33
2019-02-07T10:17:26.813Z,24.17
2019-02-07T10:20:25.993Z,23.30
2019-02-07T10:23:13.846Z,23.47
2019-02-07T10:26:01.706Z,21.90
2019-02-07T10:28:48.050Z,23.23
2019-02-07T10:31:34.546Z,22.23
2019-02-07T10:34:19.531Z,22.63
2019-02-07T10:36:55.043Z,23.13
2019-02-07T10:39:41.657Z,22.80
2019-02-07T10:42:42.221Z,22.17
2019-02-07T10:45:29.858Z,23.20
2019-02-07T10:48:16.470Z,19.80
2019-02-07T10:51:04.484Z,20.97
2019-02-07T10:53:55.219Z,19.60
2019-02-07T10:56:43.324Z,23.03
2019-02-07T10:59:37.464Z,21.07
2019-02-07T11:02:24.734Z,22.00
2019-02-07T11:05:13.013Z,21.07
2019-02-07T11:08:06.893Z,21.20
2019-02-07T11:10:56.942Z,19.13
2019-02-07T11:13:47.679Z,20.43
2019-02-07T11:16:34.317Z,22.83
2019-02-07T11:19:28.298Z,21.07
2019-02-07T11:22:11.273Z,20.93
2019-02-07T11:24:58.640Z,15.87
2019-02-07T11:27:47.945Z,21.10
2019-02-07T11:30:28.451Z,15.13
2019-02-07T11:33:19.221Z,19.30
2019-02-07T11:35:59.188Z,16.90
2019-02-07T11:38:45.818Z,15.67
2019-02-07T11:41:38.965Z,15.60
2019-02-07T11:44:32.680Z,16.53
2019-02-07T11:47:11.264Z,14.90
2019-02-07T11:49:59.509Z,16.17
2019-02-07T11:52:39.245Z,14.53
2019-02-07T11:55:28.253Z,16.30
2019-02-07T11:58:10.976Z,14.50
2019-02-07T12:00:56.403Z,13.50
2019-02-07T12:03:41.949Z,16.47
2019-02-07T12:06:48.058Z,14.73
2019-02-07T12:09:42.072Z,14.37
2019-02-07T12:12:28.398Z,13.47
2019-02-07T12:15:15.095Z,12.63
2019-02-07T12:18:08.607Z,14.43
2019-02-07T12:21:14.661Z,14.93
2019-02-07T12:24:02.585Z,13.50
2019-02-07T12:26:49.171Z,13.17
2019-02-07T12:29:31.442Z,13.10
2019-02-07T12:32:19.678Z,12.03
2019-02-07T12:35:22.478Z,12.63
2019-02-07T12:38:08.925Z,12.20
2019-02-07T12:41:08.765Z,11.93
2019-02-07T12:44:02.378Z,12.67
2019-02-07T12:46:59.111Z,11.60
2019-02-07T12:49:47.021Z,12.07
2019-02-07T12:52:40.725Z,10.57
2019-02-07T12:55:52.085Z,11.20
2019-02-07T12:58:36.466Z,11.97
2019-02-07T13:01:23.945Z,11.37
2019-02-07T13:04:10.443Z,10.73
2019-02-07T13:06:51.537Z,9.47
2019-02-07T13:09:37.921Z,9.03
2019-02-07T13:12:26.613Z,10.47
2019-02-07T13:15:23.717Z,8.43
2019-02-07T13:18:11.986Z,8.37
2019-02-07T13:20:59.851Z,9.37
2019-02-07T13:23:55.412Z,9.53
2019-02-07T13:26:32.102Z,8.30
2019-02-07T13:29:19.058Z,9.10
2019-02-07T13:32:19.306Z,7.03
2019-02-07T13:35:19.349Z,6.80
2019-02-07T13:38:16.097Z,6.87
2019-02-07T13:41:09.503Z,6.10
2019-02-07T13:43:58.174Z,6.73
2019-02-07T13:46:56.638Z,6.07
2019-02-07T13:49:51.659Z,7.20
2019-02-07T13:52:40.006Z,9.37
2019-02-07T13:55:21.033Z,6.07
2019-02-07T13:58:26.914Z,7.03
2019-02-07T14:01:08.890Z,6.07
2019-02-07T14:03:53.686Z,6.30
2019-02-07T14:06:44.771Z,5.47
2019-02-07T14:09:31.198Z,5.50
2019-02-07T14:12:18.642Z,6.00
2019-02-07T14:15:09.594Z,5.23
2019-02-07T14:18:06.108Z,6.20
2019-02-07T14:21:03.217Z,5.47
2019-02-07T14:23:44.013Z,5.83
2019-02-07T14:26:40.802Z,5.83
2019-02-07T14:29:28.801Z,5.40
2019-02-07T14:32:11.357Z,5.70
2019-02-07T14:34:59.596Z,5.20
2019-02-07T14:37:45.937Z,5.83
2019-02-07T14:40:31.840Z,5.90
2019-02-07T14:43:09.287Z,5.13
2019-02-07T14:45:43.677Z,5.47
2019-02-07T14:48:23.113Z,6.07
2019-02-07T14:50:52.620Z,5.50
2019-02-07T14:53:21.630Z,4.53
2019-02-07T14:55:50.624Z,5.13
2019-02-07T14:58:19.627Z,4.37
2019-02-07T15:00:48.663Z,4.73
2019-02-07T15:03:17.699Z,4.80
2019-02-07T15:05:46.833Z,4.50
2019-02-07T15:08:15.677Z,3.73
2019-02-07T15:10:44.640Z,4.73
2019-02-07T15:13:13.659Z,5.20
2019-02-07T15:15:42.509Z,4.60
2019-02-07T15:18:11.430Z,4.40
2019-02-07T15:20:40.988Z,4.83
2019-02-07T15:23:09.829Z,4.67
2019-02-07T15:25:38.918Z,4.30
2019-02-07T15:28:07.784Z,12.80
2019-02-07T15:30:36.892Z,5.40
2019-02-07T15:33:05.910Z,4.10
2019-02-07T15:35:37.500Z,3.83
2019-02-07T15:38:06.517Z,4.10
2019-02-07T15:40:35.421Z,3.53
2019-02-07T15:43:04.798Z,3.63
2019-02-07T15:45:34.006Z,4.27
2019-02-07T15:48:02.790Z,4.57
2019-02-07T15:50:37.590Z,7.10
2019-02-07T15:53:03.386Z,5.23
2019-02-07T15:55:32.268Z,3.93
2019-02-07T15:58:01.346Z,2.97
2019-02-07T16:01:02.553Z,3.30
2019-02-07T16:03:37.272Z,3.53
2019-02-07T16:06:06.666Z,4.00
2019-02-07T16:08:35.583Z,4.27
2019-02-07T16:11:05.514Z,3.77
2019-02-07T16:13:34.653Z,3.67
2019-02-07T16:16:03.854Z,3.10
2019-02-07T16:18:32.774Z,4.00
2019-02-07T16:21:01.709Z,3.73
2019-02-07T16:23:30.483Z,3.77
2019-02-07T16:25:59.358Z,3.47
2019-02-07T16:28:28.498Z,4.37
2019-02-07T16:30:57.432Z,3.00
2019-02-07T16:33:26.272Z,3.07
2019-02-07T16:35:55.215Z,3.60
2019-02-07T16:38:24.051Z,3.57
2019-02-07T16:40:53.243Z,3.30
2019-02-07T16:43:22.465Z,3.60
2019-02-07T16:45:51.431Z,4.33
2019-02-07T16:48:20.358Z,3.07
2019-02-07T16:50:59.675Z,2.73
2019-02-07T16:53:20.534Z,2.80
2019-02-07T16:55:49.325Z,3.23
2019-02-07T16:58:18.550Z,3.17
2019-02-07T17:00:47.458Z,3.07
2019-02-07T17:03:16.266Z,4.27
2019-02-07T17:05:45.249Z,3.60
2019-02-07T17:08:14.185Z,3.23
2019-02-07T17:10:43.095Z,3.00
2019-02-07T17:13:12.033Z,3.27
2019-02-07T17:15:41.163Z,3.57
2019-02-07T17:18:10.565Z,4.13
2019-02-07T17:20:39.853Z,2.90
2019-02-07T17:23:09.303Z,4.07
2019-02-07T17:25:38.072Z,3.37
2019-02-07T17:28:07.009Z,3.30
2019-02-07T17:30:36.394Z,3.30
2019-02-07T17:33:05.466Z,3.73
2019-02-07T17:35:34.378Z,3.20
2019-02-07T17:38:03.267Z,3.97
2019-02-07T17:40:32.487Z,2.73
2019-02-07T17:43:01.271Z,2.90
2019-02-07T17:45:30.557Z,3.60
2019-02-07T17:47:59.485Z,4.03
2019-02-07T17:50:30.945Z,2.87
2019-02-07T17:53:00.302Z,3.53
2019-02-07T17:55:29.490Z,3.77
2019-02-07T17:57:58.586Z,3.10
2019-02-07T18:00:40.942Z,3.53
2019-02-07T18:03:09.981Z,3.07
2019-02-07T18:05:38.818Z,4.07
2019-02-07T18:08:08.443Z,4.13
2019-02-07T18:10:37.367Z,3.30
2019-02-07T18:13:06.928Z,3.37
2019-02-07T18:15:35.782Z,3.87
2019-02-07T18:18:05.374Z,4.60
2019-02-07T18:20:34.362Z,4.83
2019-02-07T18:23:03.261Z,7.23
2019-02-07T18:25:32.202Z,3.30
2019-02-07T18:28:01.173Z,9.87
2019-02-07T18:30:30.275Z,4.50
2019-02-07T18:32:59.193Z,4.43
2019-02-07T18:35:28.042Z,5.00
2019-02-07T18:37:57.229Z,5.43
2019-02-07T18:40:26.720Z,4.60
2019-02-07T18:42:55.650Z,3.67
2019-02-07T18:45:24.669Z,2.83
2019-02-07T18:47:53.931Z,4.10
2019-02-07T18:50:25.436Z,3.47
2019-02-07T18:52:54.298Z,2.93
2019-02-07T18:55:23.373Z,4.47
2019-02-07T18:57:52.385Z,5.53
2019-02-07T19:00:23.538Z,3.23
2019-02-07T19:02:52.463Z,4.77
2019-02-07T19:05:22.054Z,4.07
2019-02-07T19:07:51.316Z,3.93
2019-02-07T19:10:21.309Z,4.50
2019-02-07T19:12:50.313Z,5.80
2019-02-07T19:15:25.504Z,5.33
2019-02-07T19:17:54.505Z,4.50
2019-02-07T19:20:23.320Z,3.30
2019-02-07T19:22:52.276Z,3.00
2019-02-07T19:25:21.142Z,2.80
2019-02-07T19:27:50.062Z,4.23
2019-02-07T19:30:37.554Z,3.37
2019-02-07T19:33:06.581Z,3.10
2019-02-07T19:35:35.525Z,2.90
2019-02-07T19:38:04.705Z,2.90
2019-02-07T19:40:33.961Z,3.00
2019-02-07T19:43:02.840Z,3.13
2019-02-07T19:45:31.676Z,4.07
2019-02-07T19:48:00.448Z,6.00
2019-02-07T19:50:29.370Z,3.47
2019-02-07T19:52:58.278Z,3.60
2019-02-07T19:55:28.157Z,3.20
2019-02-07T19:57:57.485Z,3.30
2019-02-07T20:00:28.392Z,2.80
2019-02-07T20:02:57.823Z,3.60
2019-02-07T20:05:26.693Z,3.00
2019-02-07T20:07:55.946Z,4.10
2019-02-07T20:10:26.424Z,3.33
2019-02-07T20:12:55.838Z,6.30
2019-02-07T20:15:29.528Z,4.93
2019-02-07T20:17:59.888Z,4.13
2019-02-07T20:20:29.726Z,3.10
2019-02-07T20:22:58.684Z,4.07
2019-02-07T20:25:28.235Z,4.50
2019-02-07T20:27:57.465Z,7.43
2019-02-07T20:30:28.610Z,5.50
2019-02-07T20:32:57.584Z,3.87
2019-02-07T20:35:26.543Z,2.80
2019-02-07T20:37:55.689Z,5.53
2019-02-07T20:40:25.914Z,5.73
2019-02-07T20:42:55.167Z,4.67
2019-02-07T20:45:24.554Z,8.20
2019-02-07T20:47:53.562Z,3.70
2019-02-07T20:50:23.891Z,5.13
2019-02-07T20:52:53.429Z,4.20
2019-02-07T20:55:22.723Z,3.77
2019-02-07T20:57:52.042Z,3.93
2019-02-07T21:00:32.055Z,2.67
2019-02-07T21:03:00.842Z,4.20
2019-02-07T21:05:30.709Z,3.80
2019-02-07T21:07:59.671Z,3.27
2019-02-07T21:10:29.591Z,3.43
2019-02-07T21:12:58.647Z,3.63
2019-02-07T21:15:28.059Z,5.57
2019-02-07T21:17:57.415Z,3.63
2019-02-07T21:20:27.630Z,3.03
2019-02-07T21:22:57.522Z,2.50
2019-02-07T21:25:43.732Z,3.13
2019-02-07T21:28:12.937Z,3.47
2019-02-07T21:30:41.910Z,2.63
2019-02-07T21:33:10.747Z,2.77
2019-02-07T21:35:39.584Z,2.70
2019-02-07T21:38:08.702Z,2.70
2019-02-07T21:40:37.581Z,2.20
2019-02-07T21:43:06.817Z,2.17
2019-02-07T21:45:35.969Z,2.20
2019-02-07T21:48:07.820Z,3.20
2019-02-07T21:50:36.706Z,3.20
2019-02-07T21:53:05.730Z,2.63
2019-02-07T21:55:34.740Z,1.97
2019-02-07T21:58:04.336Z,1.60
2019-02-07T22:00:35.598Z,1.83
2019-02-07T22:03:06.048Z,1.40
2019-02-07T22:05:35.209Z,1.23
2019-02-07T22:08:04.469Z,1.40
2019-02-07T22:10:33.414Z,1.57
2019-02-07T22:13:02.197Z,1.10
2019-02-07T22:15:31.560Z,1.53
2019-02-07T22:18:00.498Z,1.43
2019-02-07T22:20:29.478Z,1.13
2019-02-07T22:22:58.559Z,1.63
2019-02-07T22:25:27.549Z,1.50
2019-02-07T22:27:56.783Z,1.23
2019-02-07T22:30:31.529Z,1.60
2019-02-07T22:33:00.534Z,1.53
2019-02-07T22:35:29.685Z,1.37
2019-02-07T22:37:58.480Z,1.13
2019-02-07T22:40:27.529Z,1.40
2019-02-07T22:42:56.552Z,1.40
2019-02-07T22:45:26.025Z,1.73
2019-02-07T22:47:54.994Z,1.10
2019-02-07T22:50:25.778Z,1.17
2019-02-07T22:52:56.886Z,1.33
2019-02-07T22:55:25.607Z,1.27
2019-02-07T22:57:54.615Z,1.60
2019-02-07T23:01:03.689Z,1.40
2019-02-07T23:03:32.614Z,1.33
2019-02-07T23:06:01.594Z,1.73
2019-02-07T23:08:30.465Z,1.30
2019-02-07T23:10:59.491Z,1.20
2019-02-07T23:13:28.419Z,1.33
2019-02-07T23:15:57.622Z,1.50
2019-02-07T23:18:26.623Z,1.70
2019-02-07T23:20:55.746Z,1.13
2019-02-07T23:23:24.893Z,1.03
2019-02-07T23:25:53.846Z,1.40
2019-02-07T23:28:22.972Z,1.50
2019-02-07T23:30:51.826Z,1.57
2019-02-07T23:33:20.693Z,1.00
2019-02-07T23:35:49.625Z,1.53
2019-02-07T23:38:18.982Z,1.30
2019-02-07T23:40:47.940Z,1.20
2019-02-07T23:43:16.881Z,1.10
2019-02-07T23:45:45.900Z,1.53
2019-02-07T23:48:15.254Z,1.20
2019-02-07T23:50:44.219Z,1.40
2019-02-07T23:53:15.341Z,1.40
2019-02-07T23:55:44.382Z,1.23
2019-02-07T23:58:13.427Z,1.67
